Time;durP1;ratioP1;P1;durP2;ratioP2;P2;SDS_P1;SDS_P2;PMS_P1;PMS_P2;Temp;Humidity;BMP_temperature;BMP_pressure;BME280_temperature;BME280_humidity;BME280_pressure;Samples;Min_cycle;Max_cycle;Signal;HPM_P1;HPM_P2
2022/10/19 00:00:23;;;;;;;10.95;7.62;;;;;;;13.04;63.07;100424.09;4485781;32;34139;-77
2022/10/19 00:02:50;;;;;;;10.75;7.28;;;;;;;13.08;62.71;100425.25;4486141;32;34347;-76
2022/10/19 00:05:18;;;;;;;10.07;6.45;;;;;;;13.09;62.58;100422.28;4486196;32;33835;-77
2022/10/19 00:07:45;;;;;;;9.85;6.87;;;;;;;12.95;63.19;100418.22;4483982;32;34179;-80
2022/10/19 00:10:13;;;;;;;10.38;6.95;;;;;;;12.72;63.81;100411.03;4484415;32;34074;-76
2022/10/19 00:12:40;;;;;;;10.07;6.57;;;;;;;12.87;63.71;100411.31;4485762;32;34329;-76
2022/10/19 00:15:08;;;;;;;10.57;7.07;;;;;;;12.95;63.42;100406.53;4485602;32;34114;-76
2022/10/19 00:17:36;;;;;;;10.15;6.32;;;;;;;12.95;63.32;100407.34;4485886;32;34349;-76
2022/10/19 00:20:03;;;;;;;14.10;8.77;;;;;;;13.01;63.00;100394.62;4485405;32;33632;-76
2022/10/19 00:22:31;;;;;;;14.52;9.45;;;;;;;13.05;63.02;100401.25;4485512;32;35014;-77
2022/10/19 00:24:59;;;;;;;13.68;8.65;;;;;;;12.60;64.48;100402.13;4485563;32;34681;-75
2022/10/19 00:27:26;;;;;;;16.02;9.60;;;;;;;12.67;64.50;100391.91;4485778;32;33268;-75
2022/10/19 00:29:54;;;;;;;13.38;8.18;;;;;;;12.42;65.42;100398.56;4485488;32;33335;-79
2022/10/19 00:32:21;;;;;;;12.75;8.07;;;;;;;12.35;65.42;100389.72;4470635;32;34981;-76
2022/10/19 00:34:48;;;;;;;10.82;7.18;;;;;;;12.19;66.24;100394.06;4469970;32;33828;-75
2022/10/19 00:37:16;;;;;;;9.90;7.28;;;;;;;12.25;66.17;100392.28;4469921;32;33298;-75
2022/10/19 00:39:43;;;;;;;11.85;7.82;;;;;;;12.24;66.02;100387.88;4469766;32;34170;-78
2022/10/19 00:42:11;;;;;;;9.10;6.32;;;;;;;12.39;65.49;100387.34;4470261;32;34310;-76
2022/10/19 00:44:39;;;;;;;10.45;6.65;;;;;;;12.56;64.82;100374.56;4470052;32;34061;-77
2022/10/19 00:47:07;;;;;;;13.20;7.03;;;;;;;11.93;67.01;100378.34;4470054;32;34198;-77
2022/10/19 00:49:37;;;;;;;9.85;7.07;;;;;;;12.44;65.02;100371.09;4468500;32;33898;-76
2022/10/19 00:52:07;;;;;;;10.60;6.90;;;;;;;12.67;64.33;100367.41;4468778;32;33991;-75
2022/10/19 00:54:36;;;;;;;9.63;6.40;;;;;;;12.15;65.81;100357.53;4468943;32;33846;-77
2022/10/19 00:57:04;;;;;;;10.63;7.12;;;;;;;12.38;64.95;100351.16;4468429;32;34132;-75
2022/10/19 00:59:32;;;;;;;10.65;6.78;;;;;;;12.44;64.93;100355.63;4468663;32;33902;-75
2022/10/19 01:02:02;;;;;;;10.13;6.70;;;;;;;12.57;64.79;100353.62;4468604;32;34240;-80
2022/10/19 01:04:31;;;;;;;9.95;6.72;;;;;;;12.81;63.92;100348.84;4468347;32;34113;-76
2022/10/19 01:06:59;;;;;;;8.88;6.32;;;;;;;12.80;63.54;100342.56;4469521;32;33754;-77
2022/10/19 01:09:26;;;;;;;12.55;6.95;;;;;;;12.63;64.13;100344.47;4468726;32;33575;-76
2022/10/19 01:12:00;;;;;;;10.43;6.45;;;;;;;12.79;64.11;100338.19;4469659;32;34128;-77
2022/10/19 01:15:15;;;;;;;9.65;7.03;;;;;;;12.60;64.86;100345.78;4468311;32;34125;-75
2022/10/19 01:18:03;;;;;;;9.35;6.47;;;;;;;13.02;63.60;100339.06;4456510;32;34256;-79
2022/10/19 01:20:42;;;;;;;10.27;7.10;;;;;;;13.30;62.60;100328.06;4484052;32;33666;-75
2022/10/19 01:23:28;;;;;;;11.02;6.65;;;;;;;13.33;62.44;100321.28;4484261;32;34972;-76
2022/10/19 01:26:11;;;;;;;11.35;7.30;;;;;;;13.31;62.71;100320.72;4469809;32;33820;-76
2022/10/19 01:29:15;;;;;;;9.88;6.62;;;;;;;12.85;63.92;100322.75;4469467;32;34168;-75
2022/10/19 01:31:47;;;;;;;11.05;6.72;;;;;;;13.18;63.09;100326.50;4469547;32;34007;-76
2022/10/19 01:34:29;;;;;;;8.65;6.07;;;;;;;13.23;62.87;100327.38;4469367;32;34927;-76
2022/10/19 01:37:01;;;;;;;9.00;6.55;;;;;;;13.16;63.10;100324.03;4469400;32;33875;-76
2022/10/19 01:40:12;;;;;;;8.77;6.22;;;;;;;13.63;61.33;100312.66;4476092;32;33540;-75
2022/10/19 01:43:03;;;;;;;9.13;6.47;;;;;;;13.61;61.55;100303.09;4477276;32;34172;-75
2022/10/19 01:46:13;;;;;;;9.40;6.80;;;;;;;13.77;60.92;100306.78;4483850;32;33700;-74
2022/10/19 01:48:46;;;;;;;9.55;6.30;;;;;;;13.70;61.34;100302.38;4455425;31;34488;-76
2022/10/19 01:51:18;;;;;;;8.77;6.40;;;;;;;13.66;61.59;100293.03;4483921;32;34325;-80
2022/10/19 01:53:50;;;;;;;10.18;7.07;;;;;;;13.81;60.66;100291.56;4478865;32;33916;-75
2022/10/19 01:56:20;;;;;;;10.18;6.78;;;;;;;14.08;60.34;100292.38;4468146;32;34827;-76
2022/10/19 01:58:49;;;;;;;10.05;6.30;;;;;;;14.11;59.97;100289.13;4468150;32;34096;-75
2022/10/19 02:01:18;;;;;;;11.07;7.55;;;;;;;13.71;61.33;100295.84;4467974;32;33427;-75
2022/10/19 02:03:48;;;;;;;10.50;7.45;;;;;;;13.68;61.79;100296.34;4469412;32;34954;-75
2022/10/19 02:06:15;;;;;;;10.20;7.18;;;;;;;13.87;61.31;100301.44;4478161;32;34029;-76
2022/10/19 02:08:46;;;;;;;12.40;7.00;;;;;;;13.95;61.16;100311.87;4483555;32;33822;-79
2022/10/19 02:11:14;;;;;;;10.52;7.22;;;;;;;14.16;60.44;100310.19;4483459;32;34205;-76
2022/10/19 02:13:42;;;;;;;10.20;7.25;;;;;;;14.03;60.62;100308.69;4483070;32;34116;-76
2022/10/19 02:16:19;;;;;;;9.82;7.07;;;;;;;13.68;61.51;100318.16;4483339;32;35166;-76
2022/10/19 02:18:49;;;;;;;13.32;7.78;;;;;;;13.82;61.24;100318.59;4483149;32;34757;-76
2022/10/19 02:21:17;;;;;;;11.73;8.45;;;;;;;13.54;62.03;100315.00;4484228;32;33276;-75
2022/10/19 02:23:44;;;;;;;12.30;7.55;;;;;;;13.62;61.85;100312.91;4483438;32;33909;-76
2022/10/19 02:26:17;;;;;;;11.95;8.18;;;;;;;13.54;62.10;100305.97;4472531;32;35223;-76
2022/10/19 02:28:44;;;;;;;11.63;7.90;;;;;;;13.36;62.69;100309.03;4468784;32;34665;-77
2022/10/19 02:31:12;;;;;;;13.20;8.27;;;;;;;13.40;62.64;100308.28;4467630;32;33457;-79
2022/10/19 02:33:39;;;;;;;10.93;7.50;;;;;;;13.80;61.94;100315.28;4468756;32;33661;-78
2022/10/19 02:36:07;;;;;;;11.82;8.27;;;;;;;13.46;62.36;100314.63;4468650;32;34325;-76
2022/10/19 02:38:34;;;;;;;11.73;8.55;;;;;;;13.63;62.02;100315.37;4467508;32;33918;-76
2022/10/19 02:41:25;;;;;;;11.75;8.30;;;;;;;14.04;60.59;100321.28;4479754;32;33437;-76
2022/10/19 02:43:57;;;;;;;13.88;8.90;;;;;;;13.78;61.51;100305.69;4484008;32;33539;-79
2022/10/19 02:46:38;;;;;;;13.73;8.57;;;;;;;13.69;61.80;100299.88;4483967;32;35028;-79
2022/10/19 02:49:10;;;;;;;13.75;8.82;;;;;;;13.81;61.19;100306.03;4485011;31;33616;-76
2022/10/19 02:51:59;;;;;;;12.63;8.77;;;;;;;13.72;61.61;100310.28;4485321;32;34464;-76
2022/10/19 02:54:27;;;;;;;12.60;8.68;;;;;;;13.80;61.35;100317.19;4476237;32;34707;-76
2022/10/19 02:56:55;;;;;;;11.95;8.77;;;;;;;13.72;61.60;100313.84;4470847;32;34094;-76
2022/10/19 02:59:23;;;;;;;14.38;9.57;;;;;;;13.79;61.45;100312.81;4470517;32;34800;-76
2022/10/19 03:01:51;;;;;;;12.73;8.95;;;;;;;14.07;60.89;100309.00;4471062;32;34251;-79
2022/10/19 03:04:18;;;;;;;16.35;9.98;;;;;;;14.05;60.71;100314.72;4486348;32;34801;-77
2022/10/19 03:06:46;;;;;;;15.38;9.27;;;;;;;13.58;62.43;100314.47;4486055;32;34977;-76
2022/10/19 03:09:13;;;;;;;15.02;9.95;;;;;;;14.02;61.32;100317.97;4486100;32;34594;-76
2022/10/19 03:11:41;;;;;;;13.82;9.52;;;;;;;13.87;61.89;100329.53;4486383;32;34771;-75
2022/10/19 03:14:08;;;;;;;18.08;10.40;;;;;;;13.13;64.52;100321.78;4486185;32;33780;-76
2022/10/19 03:16:36;;;;;;;15.00;9.88;;;;;;;13.58;63.41;100326.19;4486461;32;34216;-76
2022/10/19 03:19:03;;;;;;;16.77;11.68;;;;;;;13.84;63.04;100326.50;4486344;32;34690;-76
2022/10/19 03:21:32;;;;;;;17.27;11.38;;;;;;;13.82;62.97;100334.97;4486106;32;33303;-75
2022/10/19 03:24:00;;;;;;;14.93;10.38;;;;;;;13.89;63.03;100330.12;4483263;32;34846;-77
2022/10/19 03:26:27;;;;;;;18.75;11.45;;;;;;;13.71;63.51;100335.91;4470690;32;34235;-76
2022/10/19 03:28:55;;;;;;;20.80;11.70;;;;;;;13.78;62.94;100331.09;4469207;32;34677;-76
2022/10/19 03:31:23;;;;;;;17.08;12.00;;;;;;;13.67;63.33;100321.97;4470423;32;33551;-75
2022/10/19 03:33:50;;;;;;;15.55;11.48;;;;;;;13.56;63.88;100319.38;4470344;32;34078;-76
2022/10/19 03:36:24;;;;;;;14.90;10.85;;;;;;;13.43;63.60;100317.84;4470348;32;34155;-75
2022/10/19 03:38:53;;;;;;;15.45;10.95;;;;;;;13.56;63.04;100327.53;4469647;32;34959;-78
2022/10/19 03:41:21;;;;;;;16.80;10.88;;;;;;;13.93;61.53;100336.72;4469859;32;34463;-78
2022/10/19 03:43:49;;;;;;;19.37;11.25;;;;;;;13.76;61.58;100325.06;4470465;32;33926;-77
2022/10/19 03:46:17;;;;;;;17.83;11.38;;;;;;;13.68;61.86;100337.25;4470562;32;34220;-77
2022/10/19 03:48:44;;;;;;;17.12;10.88;;;;;;;14.11;60.50;100337.44;4469979;32;33983;-76
2022/10/19 03:51:14;;;;;;;15.05;10.88;;;;;;;13.62;61.21;100340.16;4469501;32;33563;-76
2022/10/19 03:53:42;;;;;;;16.55;10.68;;;;;;;13.64;62.04;100338.00;4480812;32;34714;-75
2022/10/19 03:56:12;;;;;;;18.08;10.93;;;;;;;13.82;61.18;100340.41;4484616;32;34293;-74
2022/10/19 03:58:41;;;;;;;16.30;10.82;;;;;;;13.72;61.80;100334.84;4485561;32;33988;-75
2022/10/19 04:01:14;;;;;;;14.48;10.45;;;;;;;14.02;60.16;100336.25;4477459;32;33608;-75
2022/10/19 04:03:42;;;;;;;16.50;10.38;;;;;;;13.92;60.39;100340.50;4470132;32;34633;-76
2022/10/19 04:06:12;;;;;;;14.48;10.18;;;;;;;14.00;60.10;100338.41;4470226;32;34766;-75
2022/10/19 04:08:47;;;;;;;17.02;10.23;;;;;;;14.05;59.63;100328.34;4469958;32;34829;-76
2022/10/19 04:11:16;;;;;;;16.42;9.70;;;;;;;13.83;60.23;100335.78;4479167;32;33433;-73
2022/10/19 04:13:43;;;;;;;15.07;9.45;;;;;;;14.07;59.68;100334.38;4484282;32;33888;-74
2022/10/19 04:16:12;;;;;;;15.73;10.35;;;;;;;13.93;60.04;100342.16;4485613;32;34930;-74
2022/10/19 04:18:39;;;;;;;14.68;10.18;;;;;;;14.00;59.81;100339.22;4484766;32;34108;-76
2022/10/19 04:21:19;;;;;;;14.30;9.77;;;;;;;13.73;60.28;100344.66;4485695;32;34534;-75
2022/10/19 04:23:47;;;;;;;15.77;9.65;;;;;;;13.91;60.01;100355.22;4485657;32;34795;-77
2022/10/19 04:26:14;;;;;;;14.55;9.77;;;;;;;13.54;61.05;100345.00;4485780;32;35012;-75
2022/10/19 04:28:42;;;;;;;15.02;10.23;;;;;;;14.09;59.46;100337.69;4472914;32;35000;-76
2022/10/19 04:31:10;;;;;;;14.15;9.98;;;;;;;13.64;60.81;100332.56;4469917;32;33749;-76
2022/10/19 04:33:38;;;;;;;15.40;10.20;;;;;;;13.73;60.74;100329.09;4468785;32;34052;-76
2022/10/19 04:36:09;;;;;;;13.38;9.55;;;;;;;13.59;61.47;100327.88;4469852;32;35062;-77
2022/10/19 04:38:37;;;;;;;13.60;9.48;;;;;;;13.74;61.52;100319.03;4469931;32;34060;-77
2022/10/19 04:41:12;;;;;;;18.92;10.82;;;;;;;13.18;63.60;100318.31;4476224;32;33420;-76
2022/10/19 04:43:40;;;;;;;14.90;10.00;;;;;;;13.77;61.67;100323.16;4471665;32;34749;-72
2022/10/19 04:46:09;;;;;;;16.33;10.90;;;;;;;13.67;61.77;100341.06;4468879;32;33899;-76
2022/10/19 04:48:38;;;;;;;15.15;10.68;;;;;;;13.72;61.27;100343.84;4469623;32;34803;-73
2022/10/19 04:51:06;;;;;;;17.00;10.95;;;;;;;13.75;61.01;100342.50;4469020;32;34394;-86
2022/10/19 04:53:33;;;;;;;15.32;10.82;;;;;;;13.58;61.55;100339.84;4484312;32;34012;-80
2022/10/19 04:56:04;;;;;;;14.27;10.50;;;;;;;13.50;61.82;100327.50;4485678;32;34279;-76
2022/10/19 04:58:32;;;;;;;16.10;9.95;;;;;;;13.19;63.06;100325.41;4470844;32;33937;-75
2022/10/19 05:01:15;;;;;;;16.45;11.10;;;;;;;13.37;62.74;100313.41;4469767;32;34256;-76
2022/10/19 05:03:43;;;;;;;15.38;10.27;;;;;;;13.49;62.51;100322.28;4469859;32;34777;-75
2022/10/19 05:06:12;;;;;;;14.90;10.60;;;;;;;13.40;62.98;100312.91;4469715;32;34292;-74
2022/10/19 05:08:39;;;;;;;17.58;10.70;;;;;;;13.49;63.11;100314.09;4469558;32;34741;-75
2022/10/19 05:11:10;;;;;;;17.12;10.95;;;;;;;13.16;64.71;100320.47;4467732;32;33653;-76
2022/10/19 05:13:38;;;;;;;15.80;10.90;;;;;;;13.00;65.51;100333.03;4469438;32;34098;-78
2022/10/19 05:16:07;;;;;;;16.95;11.98;;;;;;;13.02;65.81;100337.16;4469458;32;34533;-76
2022/10/19 05:18:34;;;;;;;18.52;11.45;;;;;;;13.04;66.55;100340.47;4469354;32;34128;-78
2022/10/19 05:21:06;;;;;;;16.67;11.30;;;;;;;12.90;67.30;100340.00;4469682;32;34524;-77
2022/10/19 05:23:34;;;;;;;17.65;11.43;;;;;;;13.14;66.85;100345.25;4469636;32;34005;-78
2022/10/19 05:26:08;;;;;;;18.05;11.38;;;;;;;13.27;66.65;100328.53;4469657;32;34073;-77
2022/10/19 05:28:36;;;;;;;17.80;12.27;;;;;;;12.78;68.99;100336.53;4469545;32;34743;-78
2022/10/19 05:31:12;;;;;;;19.33;11.80;;;;;;;12.79;69.00;100327.31;4469574;32;34140;-74
2022/10/19 05:33:40;;;;;;;17.30;11.35;;;;;;;12.69;70.28;100340.75;4482976;32;33918;-75
2022/10/19 05:36:20;;;;;;;18.80;11.98;;;;;;;12.99;69.08;100339.59;4483909;32;35170;-75
2022/10/19 05:38:49;;;;;;;18.00;12.30;;;;;;;13.10;68.63;100347.62;4485186;32;33882;-75
2022/10/19 05:41:17;;;;;;;18.83;12.37;;;;;;;12.75;70.42;100341.69;4484987;32;34190;-78
2022/10/19 05:43:45;;;;;;;18.10;11.95;;;;;;;13.17;68.96;100343.91;4485212;32;33737;-76
2022/10/19 05:46:17;;;;;;;17.83;11.77;;;;;;;13.41;68.15;100336.34;4485121;32;33992;-77
2022/10/19 05:48:45;;;;;;;17.83;12.13;;;;;;;13.12;69.01;100344.66;4484812;31;33950;-76
2022/10/19 05:51:15;;;;;;;17.87;11.57;;;;;;;13.38;68.34;100355.94;4484514;32;33642;-75
2022/10/19 05:53:43;;;;;;;17.98;11.80;;;;;;;13.30;68.69;100355.31;4483704;32;33715;-75
2022/10/19 05:56:16;;;;;;;19.77;11.73;;;;;;;13.64;67.66;100355.19;4483347;32;34154;-76
2022/10/19 05:58:44;;;;;;;18.08;11.90;;;;;;;13.35;68.83;100362.72;4482690;32;34715;-75
2022/10/19 06:01:12;;;;;;;18.62;11.35;;;;;;;13.46;68.67;100363.69;4483795;32;34251;-73
2022/10/19 06:03:40;;;;;;;15.93;11.38;;;;;;;13.32;69.55;100366.75;4484093;32;34776;-73
2022/10/19 06:06:08;;;;;;;17.52;11.65;;;;;;;13.52;68.99;100355.31;4484480;32;34007;-76
2022/10/19 06:08:36;;;;;;;15.43;10.68;;;;;;;13.44;69.45;100366.66;4483975;32;34182;-76
2022/10/19 06:11:08;;;;;;;15.10;11.12;;;;;;;13.25;70.19;100368.81;4484161;32;33657;-74
2022/10/19 06:13:36;;;;;;;24.25;12.70;;;;;;;13.43;69.60;100380.53;4484600;32;33610;-78
2022/10/19 06:16:05;;;;;;;18.15;11.63;;;;;;;13.90;68.37;100371.84;4484305;32;35097;-72
2022/10/19 06:18:32;;;;;;;17.77;11.20;;;;;;;14.55;65.98;100379.06;4483628;32;33977;-70
2022/10/19 06:21:04;;;;;;;17.23;10.73;;;;;;;14.82;65.30;100388.34;4484845;32;33614;-73
2022/10/19 06:23:33;;;;;;;19.02;11.07;;;;;;;15.29;63.36;100387.53;4486452;32;34249;-73
2022/10/19 06:26:08;;;;;;;17.30;10.05;;;;;;;16.09;60.89;100381.88;4486616;32;34900;-81
2022/10/19 06:28:36;;;;;;;15.32;10.02;;;;;;;16.30;60.17;100389.03;4485304;32;34008;-75
2022/10/19 06:31:04;;;;;;;14.98;9.40;;;;;;;16.79;58.71;100394.03;4486583;32;34181;-83
2022/10/19 06:33:38;;;;;;;14.48;9.60;;;;;;;17.08;57.04;100400.88;4486444;32;34101;-73
2022/10/19 06:36:06;;;;;;;12.45;9.02;;;;;;;17.37;56.60;100399.19;4486371;32;34221;-81
2022/10/19 06:38:34;;;;;;;12.43;9.02;;;;;;;17.65;55.00;100402.41;4486686;32;33869;-85
2022/10/19 06:41:02;;;;;;;12.30;8.80;;;;;;;17.88;54.42;100400.13;4486420;32;34239;-73
2022/10/19 06:43:29;;;;;;;13.55;8.38;;;;;;;18.13;54.29;100405.50;4486159;32;34238;-81
2022/10/19 06:45:56;;;;;;;12.05;8.43;;;;;;;18.70;52.96;100396.87;4485335;32;35118;-80
2022/10/19 06:48:24;;;;;;;12.88;7.78;;;;;;;19.02;51.74;100402.66;4486158;31;33751;-84
2022/10/19 06:50:58;;;;;;;16.12;8.30;;;;;;;18.51;53.17;100400.34;4486402;32;34381;-75
2022/10/19 06:53:26;;;;;;;12.07;7.62;;;;;;;18.47;53.49;100407.50;4485313;32;34084;-77
2022/10/19 06:55:57;;;;;;;12.52;7.75;;;;;;;17.95;55.05;100414.41;4486233;32;33867;-74
2022/10/19 06:58:25;;;;;;;10.48;7.65;;;;;;;17.74;55.99;100419.94;4485281;32;34777;-78
2022/10/19 07:00:59;;;;;;;13.48;8.02;;;;;;;16.58;60.47;100426.06;4486747;32;33782;-77
2022/10/19 07:03:28;;;;;;;10.07;7.47;;;;;;;17.47;57.26;100430.44;4486101;32;34952;-77
2022/10/19 07:05:59;;;;;;;13.30;8.10;;;;;;;17.31;58.27;100435.94;4486397;32;34629;-78
2022/10/19 07:08:28;;;;;;;13.65;7.55;;;;;;;16.57;59.58;100440.06;4485014;32;33743;-77
2022/10/19 07:10:58;;;;;;;11.10;6.93;;;;;;;17.06;59.27;100433.25;4486251;32;33444;-78
2022/10/19 07:13:26;;;;;;;10.05;7.22;;;;;;;17.09;59.00;100440.94;4480340;32;33958;-78
2022/10/19 07:15:58;;;;;;;10.95;7.72;;;;;;;17.54;57.46;100431.78;4469931;31;34011;-78
2022/10/19 07:18:26;;;;;;;11.20;7.70;;;;;;;17.22;58.71;100427.47;4475790;32;33564;-74
2022/10/19 07:20:55;;;;;;;12.20;7.70;;;;;;;16.59;60.78;100433.19;4483583;32;33528;-75
2022/10/19 07:23:24;;;;;;;10.77;7.45;;;;;;;16.38;61.29;100437.81;4484545;32;33702;-73
2022/10/19 07:25:53;;;;;;;10.25;7.03;;;;;;;16.99;59.87;100441.75;4484554;32;34255;-76
2022/10/19 07:28:21;;;;;;;11.52;7.82;;;;;;;17.08;59.62;100458.47;4484858;32;33692;-76
2022/10/19 07:30:48;;;;;;;12.25;6.68;;;;;;;17.61;57.90;100450.72;4484421;32;34349;-73
2022/10/19 07:33:15;;;;;;;12.32;7.87;;;;;;;17.32;58.66;100454.06;4483452;32;34555;-71
2022/10/19 07:35:44;;;;;;;11.38;7.12;;;;;;;17.19;58.47;100457.34;4484583;32;34991;-72
2022/10/19 07:38:11;;;;;;;9.05;6.82;;;;;;;17.59;58.51;100455.66;4484663;32;33529;-73
2022/10/19 07:40:39;;;;;;;10.10;6.90;;;;;;;18.18;56.44;100456.84;4484696;32;33099;-76
2022/10/19 07:43:13;;;;;;;;;;;;;;;18.23;56.01;100457.63;4484803;32;33993;-72
2022/10/19 07:45:40;;;;;;;9.68;6.30;;;;;;;17.97;57.62;100458.84;4483909;32;34516;-77
2022/10/19 07:48:08;;;;;;;10.35;7.05;;;;;;;17.80;56.95;100462.72;4483922;32;33881;-71
2022/10/19 07:50:35;;;;;;;8.27;6.25;;;;;;;17.95;56.86;100455.59;4482829;32;33690;-73
2022/10/19 07:53:04;;;;;;;8.48;5.75;;;;;;;18.18;56.11;100462.31;4484343;32;34845;-75
2022/10/19 07:55:33;;;;;;;8.75;5.55;;;;;;;18.41;55.72;100460.84;4484180;32;34279;-75
2022/10/19 07:58:01;;;;;;;7.90;5.72;;;;;;;18.34;55.76;100457.59;4482690;32;34503;-72
2022/10/19 08:00:28;;;;;;;8.95;5.12;;;;;;;18.42;55.45;100451.47;4484018;32;32966;-73
2022/10/19 08:02:56;;;;;;;8.95;5.75;;;;;;;18.70;54.47;100444.41;4484055;32;34948;-74
2022/10/19 08:05:43;;;;;;;10.02;5.78;;;;;;;18.91;54.25;100447.88;4484629;32;33873;-72
2022/10/19 08:08:11;;;;;;;8.25;5.40;;;;;;;19.32;53.34;100443.94;4482022;32;34845;-73
2022/10/19 08:10:38;;;;;;;6.80;4.53;;;;;;;19.49;52.53;100438.00;4484589;32;33315;-72
2022/10/19 08:13:05;;;;;;;9.15;4.65;;;;;;;19.80;51.82;100439.31;4484116;32;33776;-72
2022/10/19 08:15:33;;;;;;;6.50;3.83;;;;;;;19.78;52.47;100446.22;4484585;32;34975;-72
2022/10/19 08:18:00;;;;;;;6.37;4.30;;;;;;;20.41;50.41;100436.84;4483983;32;33937;-73
2022/10/19 08:20:28;;;;;;;7.35;4.35;;;;;;;19.71;52.12;100438.31;4484260;32;33242;-73
2022/10/19 08:22:55;;;;;;;8.45;4.50;;;;;;;20.53;50.07;100436.44;4484188;32;34674;-76
2022/10/19 08:25:25;;;;;;;4.22;3.47;;;;;;;20.69;49.33;100446.13;4484085;32;34183;-72
2022/10/19 08:27:52;;;;;;;6.25;4.45;;;;;;;20.83;49.00;100448.94;4484226;32;33790;-72
2022/10/19 08:30:20;;;;;;;5.97;4.10;;;;;;;20.36;50.86;100442.44;4484292;32;34418;-76
2022/10/19 08:32:47;;;;;;;8.40;4.68;;;;;;;20.95;49.72;100448.47;4483627;32;33680;-75
2022/10/19 08:35:15;;;;;;;6.20;4.07;;;;;;;21.17;48.00;100453.38;4484392;32;34227;-75
2022/10/19 08:37:42;;;;;;;6.65;3.95;;;;;;;20.97;48.73;100455.34;4483756;32;34025;-75
2022/10/19 08:40:21;;;;;;;6.97;4.00;;;;;;;21.47;47.05;100440.97;4481224;32;88432;-75
2022/10/19 08:43:09;;;;;;;5.43;3.78;;;;;;;20.81;49.00;100452.00;4483082;32;33952;-76
2022/10/19 08:45:38;;;;;;;5.10;3.17;;;;;;;21.13;48.68;100447.63;4483907;32;33709;-77
2022/10/19 08:48:16;;;;;;;;;;;;;;;21.35;47.89;100440.63;4482671;32;34091;-77
2022/10/19 08:50:44;;;;;;;4.43;3.10;;;;;;;21.96;45.64;100444.16;4484164;32;34239;-78
2022/10/19 08:53:22;;;;;;;4.95;3.33;;;;;;;21.47;47.69;100443.75;4483306;32;34865;-78
2022/10/19 08:55:55;;;;;;;5.22;3.50;;;;;;;21.99;45.68;100447.13;4484681;32;34250;-77
2022/10/19 08:58:47;;;;;;;4.55;3.12;;;;;;;22.59;44.79;100443.34;4483915;32;34072;-77
2022/10/19 09:01:24;;;;;;;3.83;2.40;;;;;;;23.02;43.75;100442.84;4484218;32;34192;-77
2022/10/19 09:04:01;;;;;;;4.43;2.90;;;;;;;23.02;44.03;100442.84;4484100;32;33986;-77
2022/10/19 09:06:55;;;;;;;4.78;2.80;;;;;;;22.41;44.73;100445.12;4480107;32;34139;-75
2022/10/19 09:09:24;;;;;;;5.10;2.50;;;;;;;22.77;43.90;100447.06;4483790;32;33476;-76
2022/10/19 09:11:54;;;;;;;2.87;2.33;;;;;;;21.82;46.63;100446.94;4483059;32;33422;-75
2022/10/19 09:14:30;;;;;;;3.47;2.45;;;;;;;21.33;47.01;100440.91;4483821;32;34802;-75
2022/10/19 09:17:13;;;;;;;6.00;2.75;;;;;;;21.75;45.25;100446.50;4482530;32;35145;-76
2022/10/19 09:19:40;;;;;;;3.47;2.37;;;;;;;21.64;46.28;100441.19;4484924;32;33746;-73
2022/10/19 09:22:25;;;;;;;3.15;2.47;;;;;;;22.01;43.90;100444.88;4484664;32;33212;-76
2022/10/19 09:24:59;;;;;;;3.58;2.45;;;;;;;21.31;44.81;100440.41;4483460;32;33992;-74
2022/10/19 09:27:36;;;;;;;3.87;2.87;;;;;;;20.51;47.36;100447.75;4484059;32;33875;-74
2022/10/19 09:30:25;;;;;;;3.42;2.30;;;;;;;20.84;45.54;100445.91;4483849;32;34125;-76
2022/10/19 09:32:59;;;;;;;3.47;2.60;;;;;;;20.89;44.40;100451.31;4484835;32;33558;-73
2022/10/19 09:35:28;;;;;;;4.10;2.60;;;;;;;21.15;44.06;100455.59;4484613;32;33983;-74
2022/10/19 09:37:56;;;;;;;3.12;2.45;;;;;;;21.24;45.48;100449.06;4483789;32;34011;-76
2022/10/19 09:40:26;;;;;;;3.62;2.40;;;;;;;20.57;46.02;100446.59;4484368;32;34004;-77
2022/10/19 09:42:58;;;;;;;3.47;2.12;;;;;;;21.63;43.06;100449.78;4484965;32;34311;-77
2022/10/19 09:45:44;;;;;;;4.57;2.08;;;;;;;21.62;45.09;100459.16;4484639;32;34151;-77
2022/10/19 09:48:28;;;;;;;4.62;2.58;;;;;;;21.90;44.88;100463.59;4484966;32;34944;-77
2022/10/19 09:51:01;;;;;;;5.45;2.80;;;;;;;20.09;47.93;100454.94;4482940;32;33985;-77
2022/10/19 09:53:29;;;;;;;4.43;2.33;;;;;;;21.15;46.50;100459.19;4482010;32;34261;-76
2022/10/19 09:56:05;;;;;;;3.67;2.30;;;;;;;21.44;44.41;100453.44;4480817;32;34098;-80
2022/10/19 09:58:33;;;;;;;3.50;2.15;;;;;;;21.39;44.55;100456.25;4484666;32;34227;-80
2022/10/19 10:01:02;;;;;;;4.07;2.35;;;;;;;20.88;45.02;100454.37;4484702;32;34136;-78
2022/10/19 10:03:39;;;;;;;2.47;1.80;;;;;;;20.86;45.63;100451.94;4484500;32;33349;-77
2022/10/19 10:06:11;;;;;;;2.15;1.45;;;;;;;20.76;45.95;100448.53;4484989;32;33958;-80
2022/10/19 10:08:45;;;;;;;1.42;1.20;;;;;;;20.58;43.08;100439.12;4479353;31;34154;-79
2022/10/19 10:11:24;;;;;;;1.55;1.33;;;;;;;20.49;41.29;100439.75;4481762;32;33942;-78
2022/10/19 10:13:53;;;;;;;1.92;1.50;;;;;;;20.24;41.92;100440.16;4470353;31;33492;-78
2022/10/19 10:16:22;;;;;;;3.85;1.48;;;;;;;20.17;42.90;100440.53;4468090;32;34022;-74
2022/10/19 10:19:02;;;;;;;2.62;1.60;;;;;;;20.60;41.86;100443.22;4466028;32;34234;-78
2022/10/19 10:21:33;;;;;;;2.67;1.70;;;;;;;20.20;42.33;100436.34;4467252;32;35145;-77
2022/10/19 10:24:11;;;;;;;3.15;1.80;;;;;;;19.97;43.12;100438.00;4467557;32;33797;-79
2022/10/19 10:26:51;;;;;;;3.70;2.10;;;;;;;20.16;42.43;100436.09;4466931;32;34964;-76
2022/10/19 10:29:28;;;;;;;2.37;1.50;;;;;;;20.49;41.75;100431.50;4465513;32;35123;-77
2022/10/19 10:31:59;;;;;;;3.42;1.70;;;;;;;21.35;41.33;100424.06;4467319;32;33672;-78
2022/10/19 10:34:37;;;;;;;2.67;1.60;;;;;;;21.49;40.42;100422.97;4466372;32;34244;-79
2022/10/19 10:37:23;;;;;;;1.33;1.12;;;;;;;21.50;40.17;100415.50;4472303;32;33323;-75
2022/10/19 10:39:52;;;;;;;2.10;1.17;;;;;;;20.85;39.34;100410.84;4480883;32;34978;-74
2022/10/19 10:42:29;;;;;;;2.67;1.70;;;;;;;21.25;40.05;100411.25;4481081;32;34830;-73
2022/10/19 10:44:57;;;;;;;2.95;1.73;;;;;;;20.86;42.02;100418.00;4483104;32;33556;-76
2022/10/19 10:47:25;;;;;;;2.00;1.48;;;;;;;21.13;41.28;100409.00;4482620;31;33962;-75
2022/10/19 10:50:04;;;;;;;2.08;1.50;;;;;;;21.60;41.20;100408.97;4481194;32;34084;-73
2022/10/19 10:52:32;;;;;;;2.00;1.42;;;;;;;20.98;41.25;100412.84;4480695;32;34035;-75
2022/10/19 10:55:09;;;;;;;1.90;1.60;;;;;;;21.56;41.34;100405.19;4481957;32;33405;-77
2022/10/19 10:57:41;;;;;;;1.52;1.35;;;;;;;20.25;42.04;100400.44;4482376;32;34757;-76
2022/10/19 11:00:17;;;;;;;1.60;1.40;;;;;;;20.74;40.81;100401.94;4481597;32;34921;-75
2022/10/19 11:02:53;;;;;;;2.58;1.40;;;;;;;21.09;39.69;100388.63;4481650;32;33839;-76
2022/10/19 11:05:21;;;;;;;1.35;0.90;;;;;;;21.50;37.33;100388.72;4480419;32;33492;-76
2022/10/19 11:07:58;;;;;;;3.03;1.10;;;;;;;21.17;36.36;100393.47;4484156;32;33739;-74
2022/10/19 11:10:29;;;;;;;1.48;1.15;;;;;;;21.84;36.77;100392.19;4483976;32;34273;-77
2022/10/19 11:13:08;;;;;;;1.87;1.37;;;;;;;21.28;35.35;100374.78;4483197;32;34516;-76
2022/10/19 11:15:43;;;;;;;1.48;1.20;;;;;;;20.86;38.88;100379.37;4485210;32;33192;-76
2022/10/19 11:18:30;;;;;;;1.20;1.10;;;;;;;20.57;39.25;100365.78;4483845;32;34108;-76
2022/10/19 11:21:08;;;;;;;1.25;1.08;;;;;;;20.89;39.20;100376.03;4484089;32;34196;-76
2022/10/19 11:23:57;;;;;;;1.60;1.20;;;;;;;21.71;37.40;100378.06;4483609;32;33662;-76
2022/10/19 11:26:56;;;;;;;1.23;1.00;;;;;;;21.53;37.28;100375.41;4484995;32;33081;-76
2022/10/19 11:29:46;;;;;;;2.20;1.58;;;;;;;22.17;37.24;100370.72;4483744;32;33796;-76
2022/10/19 11:32:33;;;;;;;1.50;1.20;;;;;;;21.96;37.21;100380.59;4485222;32;34203;-76
2022/10/19 11:35:13;;;;;;;2.67;1.40;;;;;;;22.42;36.49;100372.13;4484731;32;33810;-76
2022/10/19 11:37:43;;;;;;;1.80;1.40;;;;;;;22.96;35.85;100369.41;4484885;32;33538;-76
2022/10/19 11:40:36;;;;;;;1.85;1.35;;;;;;;21.33;39.27;100369.16;4484822;32;33722;-76